Time;durP1;ratioP1;P1;durP2;ratioP2;P2;SDS_P1;SDS_P2;PMS_P1;PMS_P2;Temp;Humidity;BMP_temperature;BMP_pressure;BME280_temperature;BME280_humidity;BME280_pressure;Samples;Min_cycle;Max_cycle;Signal;HPM_P1;HPM_P2
2023/03/22 00:02:15;;;;;;;8.07;4.95;;;;;;;;;;5009230;28;20503;-68
2023/03/22 00:04:42;;;;;;;8.77;4.68;;;;;;;;;;5009429;28;20643;-69
2023/03/22 00:07:08;;;;;;;7.68;4.47;;;;;;;;;;5009405;28;20057;-69
2023/03/22 00:09:35;;;;;;;8.13;4.35;;;;;;;;;;5009100;28;20042;-69
2023/03/22 00:12:02;;;;;;;7.68;4.38;;;;;;;;;;5009500;28;20050;-68
2023/03/22 00:14:28;;;;;;;7.85;4.72;;;;;;;;;;5008893;28;20048;-69
2023/03/22 00:16:55;;;;;;;5.32;4.20;;;;;;;;;;5008962;28;20049;-69
2023/03/22 00:19:23;;;;;;;7.10;4.18;;;;;;;;;;5009292;28;20052;-67
2023/03/22 00:21:51;;;;;;;13.25;5.28;;;;;;;;;;5009268;28;20046;-69
2023/03/22 00:24:19;;;;;;;7.30;4.32;;;;;;;;;;5008795;28;20046;-70
2023/03/22 00:26:46;;;;;;;7.90;4.57;;;;;;;;;;5008978;28;20570;-69
2023/03/22 00:29:13;;;;;;;7.40;4.40;;;;;;;;;;5009237;28;20050;-69
2023/03/22 00:31:39;;;;;;;14.13;4.78;;;;;;;;;;5008753;28;20072;-69
2023/03/22 00:34:06;;;;;;;6.85;4.65;;;;;;;;;;5009059;28;20049;-68
2023/03/22 00:36:36;;;;;;;6.25;4.57;;;;;;;;;;5008781;28;20045;-68
2023/03/22 00:39:03;;;;;;;8.75;4.95;;;;;;;;;;5008760;28;20049;-69
2023/03/22 00:41:30;;;;;;;7.03;4.70;;;;;;;;;;5009192;28;20113;-68
2023/03/22 00:43:56;;;;;;;5.05;4.05;;;;;;;;;;5008632;28;20046;-67
2023/03/22 00:46:23;;;;;;;8.15;4.75;;;;;;;;;;5008752;28;20505;-69
2023/03/22 00:48:49;;;;;;;7.93;4.93;;;;;;;;;;5008507;28;20052;-69
2023/03/22 00:51:16;;;;;;;6.75;4.78;;;;;;;;;;5008583;28;20477;-68
2023/03/22 00:53:48;;;;;;;12.95;4.95;;;;;;;;;;5008529;28;20042;-68
2023/03/22 00:56:14;;;;;;;8.30;4.18;;;;;;;;;;5008320;28;20057;-68
2023/03/22 00:58:41;;;;;;;8.80;5.10;;;;;;;;;;5008704;28;20052;-69
2023/03/22 01:01:08;;;;;;;10.35;5.22;;;;;;;;;;5008654;28;20046;-68
2023/03/22 01:03:34;;;;;;;8.55;4.85;;;;;;;;;;5008048;28;20042;-68
2023/03/22 01:06:01;;;;;;;7.47;5.28;;;;;;;;;;5008818;28;20050;-67
2023/03/22 01:08:31;;;;;;;7.65;4.88;;;;;;;;;;5007905;28;20519;-68
2023/03/22 01:11:00;;;;;;;8.00;4.65;;;;;;;;;;5008586;28;20050;-69
2023/03/22 01:13:27;;;;;;;8.82;4.75;;;;;;;;;;5008378;28;20069;-69
2023/03/22 01:15:54;;;;;;;10.13;4.72;;;;;;;;;;5008697;28;20057;-69
2023/03/22 01:18:22;;;;;;;6.78;4.63;;;;;;;;;;5008015;28;20058;-69
2023/03/22 01:20:48;;;;;;;7.25;4.20;;;;;;;;;;5008323;28;20042;-69
2023/03/22 01:23:15;;;;;;;6.47;3.95;;;;;;;;;;5007780;28;20492;-69
2023/03/22 01:25:42;;;;;;;7.22;4.40;;;;;;;;;;5008682;28;20400;-68
2023/03/22 01:28:10;;;;;;;10.02;4.40;;;;;;;;;;5008074;28;20052;-68
2023/03/22 01:30:38;;;;;;;6.93;4.43;;;;;;;;;;5008644;28;20404;-68
2023/03/22 01:33:06;;;;;;;6.82;3.95;;;;;;;;;;5007880;28;20052;-69
2023/03/22 01:35:33;;;;;;;9.27;5.53;;;;;;;;;;5007463;28;20042;-67
2023/03/22 01:37:59;;;;;;;6.93;4.88;;;;;;;;;;5007836;28;20057;-69
2023/03/22 01:40:27;;;;;;;6.60;4.35;;;;;;;;;;5007969;28;20050;-68
2023/03/22 01:42:54;;;;;;;7.68;4.70;;;;;;;;;;5007697;28;20052;-68
2023/03/22 01:45:41;;;;;;;9.10;4.25;;;;;;;;;;5007733;28;20137;-68
2023/03/22 01:48:17;;;;;;;6.30;3.90;;;;;;;;;;5007960;28;20133;-69
2023/03/22 01:50:48;;;;;;;8.52;4.50;;;;;;;;;;5007968;28;20161;-69
2023/03/22 01:53:18;;;;;;;7.32;4.57;;;;;;;;;;5007689;28;20046;-69
2023/03/22 01:55:45;;;;;;;6.55;4.43;;;;;;;;;;5007835;28;20466;-70
2023/03/22 01:58:15;;;;;;;7.75;4.72;;;;;;;;;;5007304;28;20060;-69
2023/03/22 02:00:43;;;;;;;7.80;4.63;;;;;;;;;;5007670;28;20139;-69
2023/03/22 02:03:13;;;;;;;5.78;4.18;;;;;;;;;;5007837;28;20558;-69
2023/03/22 02:05:40;;;;;;;6.85;4.13;;;;;;;;;;5007486;28;20085;-68
2023/03/22 02:08:08;;;;;;;6.85;4.07;;;;;;;;;;5007643;28;20133;-68
2023/03/22 02:10:34;;;;;;;7.28;4.40;;;;;;;;;;5007853;28;20311;-69
2023/03/22 02:13:25;;;;;;;5.70;4.28;;;;;;;;;;5008005;28;20042;-68
2023/03/22 02:16:06;;;;;;;8.95;4.05;;;;;;;;;;5007697;28;20057;-70
2023/03/22 02:18:46;;;;;;;7.00;3.95;;;;;;;;;;5007408;28;20053;-70
2023/03/22 02:21:57;;;;;;;5.07;3.90;;;;;;;;;;5007441;28;20068;-69
2023/03/22 02:24:48;;;;;;;7.95;4.07;;;;;;;;;;5007753;28;20475;-69
2023/03/22 02:27:52;;;;;;;7.72;3.92;;;;;;;;;;5007253;28;20050;-68
2023/03/22 02:30:39;;;;;;;5.28;3.88;;;;;;;;;;5027653;28;20046;-70
2023/03/22 02:33:25;;;;;;;4.78;3.65;;;;;;;;;;5008422;28;20414;-69
2023/03/22 02:36:06;;;;;;;6.65;3.90;;;;;;;;;;5007463;28;20054;-69
2023/03/22 02:39:07;;;;;;;7.95;3.95;;;;;;;;;;5006887;28;20158;-70
2023/03/22 02:41:46;;;;;;;8.98;4.28;;;;;;;;;;5006934;28;20058;-68
2023/03/22 02:44:22;;;;;;;6.57;4.10;;;;;;;;;;5007173;28;20137;-70
2023/03/22 02:46:53;;;;;;;7.15;4.82;;;;;;;;;;5008631;28;20050;-70
2023/03/22 02:49:25;;;;;;;7.63;4.47;;;;;;;;;;5010755;28;20052;-69
2023/03/22 02:51:58;;;;;;;7.20;4.40;;;;;;;;;;5010341;28;20050;-69
2023/03/22 02:54:32;;;;;;;7.80;4.45;;;;;;;;;;5010581;28;20056;-69
2023/03/22 02:57:05;;;;;;;5.60;3.80;;;;;;;;;;5010376;28;20054;-69
2023/03/22 02:59:33;;;;;;;6.83;4.27;;;;;;;;;;5010623;28;20053;-70
2023/03/22 03:02:03;;;;;;;7.53;3.90;;;;;;;;;;5010776;28;20133;-70
2023/03/22 03:04:33;;;;;;;8.80;4.93;;;;;;;;;;5010530;28;20541;-69
2023/03/22 03:07:03;;;;;;;6.50;4.15;;;;;;;;;;5010085;28;20050;-69
2023/03/22 03:09:32;;;;;;;7.38;4.10;;;;;;;;;;5010256;28;20054;-67
2023/03/22 03:11:59;;;;;;;6.85;4.30;;;;;;;;;;5010348;28;20137;-69
2023/03/22 03:14:28;;;;;;;11.57;6.03;;;;;;;;;;5010531;28;20128;-69
2023/03/22 03:17:16;;;;;;;8.95;4.50;;;;;;;;;;5009767;28;20495;-68
2023/03/22 03:19:55;;;;;;;6.65;3.97;;;;;;;;;;5010151;28;20054;-69
2023/03/22 03:22:41;;;;;;;8.63;3.78;;;;;;;;;;5010402;28;20050;-68
2023/03/22 03:25:17;;;;;;;4.40;3.03;;;;;;;;;;5010403;28;20419;-70
2023/03/22 03:27:49;;;;;;;4.22;3.40;;;;;;;;;;5009912;28;20575;-69
2023/03/22 03:30:20;;;;;;;6.93;3.70;;;;;;;;;;5010026;28;20095;-68
2023/03/22 03:32:53;;;;;;;7.35;3.78;;;;;;;;;;5009938;28;20411;-71
2023/03/22 03:35:22;;;;;;;6.47;3.70;;;;;;;;;;5010131;28;20133;-68
2023/03/22 03:37:53;;;;;;;5.50;3.67;;;;;;;;;;5009654;28;20487;-69
2023/03/22 03:40:25;;;;;;;7.38;4.07;;;;;;;;;;5010239;28;20516;-70
2023/03/22 03:42:54;;;;;;;10.32;4.93;;;;;;;;;;5009684;28;20440;-69
2023/03/22 03:45:21;;;;;;;8.88;4.63;;;;;;;;;;5010040;28;20057;-69
2023/03/22 03:47:54;;;;;;;8.88;4.47;;;;;;;;;;5009798;28;20134;-69
2023/03/22 03:50:20;;;;;;;;;;;;;;;;;;5010035;28;20099;-70
2023/03/22 03:52:47;;;;;;;7.13;4.35;;;;;;;;;;5009700;28;19921;-70
2023/03/22 03:55:14;;;;;;;6.05;3.58;;;;;;;;;;5009856;28;20046;-69
2023/03/22 03:57:42;;;;;;;7.60;4.30;;;;;;;;;;5008493;28;20053;-70
2023/03/22 04:00:09;;;;;;;9.73;4.55;;;;;;;;;;5009357;28;20517;-70
2023/03/22 04:02:36;;;;;;;13.00;5.05;;;;;;;;;;5009420;28;20050;-70
2023/03/22 04:05:03;;;;;;;6.13;3.92;;;;;;;;;;5009443;28;20068;-69
2023/03/22 04:07:29;;;;;;;6.78;3.85;;;;;;;;;;5009203;28;20053;-70
2023/03/22 04:09:56;;;;;;;6.30;3.65;;;;;;;;;;5009026;28;20137;-70
2023/03/22 04:12:22;;;;;;;6.63;3.63;;;;;;;;;;5009534;28;20061;-70
2023/03/22 04:14:50;;;;;;;6.65;4.20;;;;;;;;;;5009195;28;20046;-70
2023/03/22 04:17:17;;;;;;;5.97;3.70;;;;;;;;;;5009161;28;20047;-69
2023/03/22 04:19:44;;;;;;;6.75;4.10;;;;;;;;;;5020663;23;20048;-69
2023/03/22 04:22:13;;;;;;;6.03;3.90;;;;;;;;;;5009228;28;20140;-69
2023/03/22 04:24:40;;;;;;;8.90;4.10;;;;;;;;;;5008543;28;20081;-69
2023/03/22 04:27:08;;;;;;;7.43;4.13;;;;;;;;;;5009121;28;20111;-70
2023/03/22 04:29:35;;;;;;;5.70;4.10;;;;;;;;;;5009419;28;20457;-70
2023/03/22 04:32:03;;;;;;;6.85;3.95;;;;;;;;;;5009876;28;20146;-69
2023/03/22 04:34:30;;;;;;;6.97;3.97;;;;;;;;;;5009464;28;20046;-70
2023/03/22 04:37:01;;;;;;;8.95;4.18;;;;;;;;;;5008921;28;20054;-70
2023/03/22 04:39:27;;;;;;;7.43;4.15;;;;;;;;;;5008944;28;20049;-69
2023/03/22 04:41:54;;;;;;;7.47;4.25;;;;;;;;;;5009301;28;20418;-69
2023/03/22 04:44:21;;;;;;;4.93;3.60;;;;;;;;;;5009233;28;20054;-69
2023/03/22 04:46:48;;;;;;;6.60;3.97;;;;;;;;;;5008872;28;20061;-69
2023/03/22 04:49:16;;;;;;;5.85;3.63;;;;;;;;;;5008794;28;20045;-69
2023/03/22 04:51:42;;;;;;;6.13;4.22;;;;;;;;;;5008494;28;20054;-68
2023/03/22 04:54:09;;;;;;;7.03;4.05;;;;;;;;;;5009045;28;20042;-69
2023/03/22 04:56:35;;;;;;;8.10;3.90;;;;;;;;;;5008616;28;20042;-69
2023/03/22 04:59:02;;;;;;;5.95;3.47;;;;;;;;;;5008619;28;20060;-68
2023/03/22 05:01:28;;;;;;;7.20;3.80;;;;;;;;;;5008765;28;20049;-70
2023/03/22 05:03:55;;;;;;;5.55;3.55;;;;;;;;;;5008453;28;20056;-68
2023/03/22 05:06:23;;;;;;;8.15;4.05;;;;;;;;;;5008104;28;20533;-69
2023/03/22 05:08:50;;;;;;;6.38;4.18;;;;;;;;;;5007994;28;20407;-68
2023/03/22 05:11:18;;;;;;;8.65;4.10;;;;;;;;;;5007734;28;20042;-68
2023/03/22 05:13:44;;;;;;;6.32;4.00;;;;;;;;;;5008186;28;20050;-69
2023/03/22 05:16:11;;;;;;;5.45;3.83;;;;;;;;;;5008457;28;20068;-70
2023/03/22 05:18:41;;;;;;;7.65;3.88;;;;;;;;;;5008189;28;20050;-69
2023/03/22 05:21:12;;;;;;;6.05;4.05;;;;;;;;;;5008265;28;20418;-68
2023/03/22 05:23:40;;;;;;;5.40;3.53;;;;;;;;;;5007980;28;20068;-69
2023/03/22 05:26:07;;;;;;;6.20;3.67;;;;;;;;;;5008541;28;20054;-68
2023/03/22 05:28:34;;;;;;;4.57;3.50;;;;;;;;;;5007864;28;20053;-69
2023/03/22 05:31:02;;;;;;;6.10;3.50;;;;;;;;;;5008089;28;20046;-71
2023/03/22 05:33:28;;;;;;;7.55;3.53;;;;;;;;;;5007443;28;20388;-69
2023/03/22 05:35:55;;;;;;;6.32;3.78;;;;;;;;;;5008178;28;20048;-68
2023/03/22 05:38:23;;;;;;;4.18;3.22;;;;;;;;;;5007659;28;20209;-69
2023/03/22 05:40:51;;;;;;;7.30;3.50;;;;;;;;;;5008339;28;20400;-69
2023/03/22 05:43:18;;;;;;;5.97;3.47;;;;;;;;;;5007802;28;20045;-68
2023/03/22 05:45:46;;;;;;;7.25;3.70;;;;;;;;;;5008760;28;20045;-69
2023/03/22 05:48:12;;;;;;;7.78;3.55;;;;;;;;;;5007941;28;20053;-68
2023/03/22 05:50:39;;;;;;;6.72;3.40;;;;;;;;;;5008338;28;20046;-69
2023/03/22 05:53:06;;;;;;;5.25;3.20;;;;;;;;;;5008133;28;20121;-68
2023/03/22 05:55:33;;;;;;;4.88;3.33;;;;;;;;;;5008131;28;20050;-69
2023/03/22 05:58:01;;;;;;;5.72;3.25;;;;;;;;;;5007801;28;20056;-69
2023/03/22 06:00:30;;;;;;;6.65;3.08;;;;;;;;;;5007535;28;20103;-68
2023/03/22 06:03:02;;;;;;;6.25;3.22;;;;;;;;;;5008184;28;20376;-69
2023/03/22 06:05:29;;;;;;;8.88;2.92;;;;;;;;;;5007666;28;20103;-69
2023/03/22 06:07:56;;;;;;;7.05;3.65;;;;;;;;;;5007791;28;20286;-68
2023/03/22 06:10:23;;;;;;;5.40;3.40;;;;;;;;;;5007648;28;20110;-68
2023/03/22 06:12:50;;;;;;;4.25;2.75;;;;;;;;;;5007563;28;20049;-68
2023/03/22 06:15:18;;;;;;;5.45;3.03;;;;;;;;;;5007366;28;20054;-69
2023/03/22 06:17:45;;;;;;;6.22;2.95;;;;;;;;;;5007380;28;20049;-68
2023/03/22 06:20:14;;;;;;;5.07;2.70;;;;;;;;;;5007586;28;20114;-68
2023/03/22 06:22:41;;;;;;;5.43;2.63;;;;;;;;;;5010576;28;20057;-68
2023/03/22 06:25:09;;;;;;;7.50;3.40;;;;;;;;;;5010770;28;20052;-69
2023/03/22 06:27:36;;;;;;;4.43;2.80;;;;;;;;;;5010540;28;20045;-69
2023/03/22 06:30:03;;;;;;;3.20;2.60;;;;;;;;;;5010587;28;20513;-68
2023/03/22 06:32:31;;;;;;;5.85;2.80;;;;;;;;;;5010934;28;20494;-69
2023/03/22 06:34:57;;;;;;;3.58;2.60;;;;;;;;;;5010816;28;20046;-68
2023/03/22 06:37:24;;;;;;;8.57;3.03;;;;;;;;;;5010477;28;20406;-69
2023/03/22 06:39:51;;;;;;;4.47;2.60;;;;;;;;;;5010833;28;20053;-68
2023/03/22 06:42:18;;;;;;;6.07;2.70;;;;;;;;;;5010327;28;20510;-68
2023/03/22 06:44:45;;;;;;;4.43;2.65;;;;;;;;;;5010930;28;20074;-69
2023/03/22 06:47:12;;;;;;;3.28;2.33;;;;;;;;;;5010302;28;20128;-68
2023/03/22 06:49:40;;;;;;;2.88;2.20;;;;;;;;;;5010301;28;20045;-68
2023/03/22 06:52:06;;;;;;;3.05;2.45;;;;;;;;;;5010543;28;20501;-69
2023/03/22 06:54:33;;;;;;;4.97;2.38;;;;;;;;;;5010465;28;20139;-68
2023/03/22 06:57:00;;;;;;;6.35;2.35;;;;;;;;;;5010484;28;20050;-68
2023/03/22 06:59:27;;;;;;;4.53;2.25;;;;;;;;;;5011194;28;20050;-68
2023/03/22 07:01:54;;;;;;;3.88;2.28;;;;;;;;;;5010445;28;20499;-69
2023/03/22 07:04:21;;;;;;;3.95;2.72;;;;;;;;;;5010544;28;20042;-69
2023/03/22 07:06:49;;;;;;;6.97;2.55;;;;;;;;;;5010519;28;20049;-69
2023/03/22 07:09:15;;;;;;;5.57;2.30;;;;;;;;;;5010030;28;20041;-69
2023/03/22 07:11:42;;;;;;;6.78;2.50;;;;;;;;;;5010250;28;20107;-70
2023/03/22 07:14:09;;;;;;;7.18;2.38;;;;;;;;;;5008824;28;20053;-69
2023/03/22 07:16:36;;;;;;;4.93;2.13;;;;;;;;;;5009315;28;20107;-68
2023/03/22 07:19:03;;;;;;;3.90;2.22;;;;;;;;;;5009758;28;20050;-68
2023/03/22 07:21:30;;;;;;;6.20;2.30;;;;;;;;;;5009922;28;20046;-68
2023/03/22 07:23:58;;;;;;;3.45;2.10;;;;;;;;;;5008742;28;20191;-68
2023/03/22 07:26:25;;;;;;;5.35;2.40;;;;;;;;;;5010303;28;20121;-69
2023/03/22 07:28:52;;;;;;;3.58;2.40;;;;;;;;;;5009306;28;20054;-69
2023/03/22 07:31:19;;;;;;;5.40;2.72;;;;;;;;;;5009655;28;20075;-68
2023/03/22 07:33:47;;;;;;;6.35;3.05;;;;;;;;;;5004380;28;20527;-68
2023/03/22 07:36:14;;;;;;;4.78;2.33;;;;;;;;;;5003642;28;20046;-68
2023/03/22 07:38:40;;;;;;;8.45;3.25;;;;;;;;;;4990378;28;20078;-69
2023/03/22 07:41:09;;;;;;;7.13;3.90;;;;;;;;;;4990086;28;20476;-68
2023/03/22 07:43:35;;;;;;;23.98;9.07;;;;;;;;;;4989778;28;20469;-68
2023/03/22 07:46:02;;;;;;;17.52;10.00;;;;;;;;;;4989787;28;20042;-68
2023/03/22 07:48:30;;;;;;;9.43;5.88;;;;;;;;;;4990024;28;20053;-67
2023/03/22 07:50:56;;;;;;;16.13;7.78;;;;;;;;;;4990543;28;20456;-69
2023/03/22 07:53:23;;;;;;;12.50;5.97;;;;;;;;;;4989749;28;20057;-68
2023/03/22 07:55:50;;;;;;;9.73;4.05;;;;;;;;;;4989834;28;20125;-68
2023/03/22 07:58:18;;;;;;;5.57;3.00;;;;;;;;;;4989701;28;20070;-69
2023/03/22 08:00:44;;;;;;;3.78;1.77;;;;;;;;;;4990097;28;20055;-70
2023/03/22 08:03:12;;;;;;;4.05;1.90;;;;;;;;;;4989494;28;20092;-70
2023/03/22 08:05:41;;;;;;;4.35;1.60;;;;;;;;;;4989398;28;20054;-69
2023/03/22 08:08:08;;;;;;;3.33;1.42;;;;;;;;;;4988954;28;20050;-69
2023/03/22 08:10:35;;;;;;;3.03;1.10;;;;;;;;;;4989623;28;20050;-70
2023/03/22 08:13:01;;;;;;;2.60;1.35;;;;;;;;;;4989296;28;20085;-69
2023/03/22 08:15:30;;;;;;;2.00;1.20;;;;;;;;;;4992248;28;20064;-69
2023/03/22 08:17:56;;;;;;;2.67;1.10;;;;;;;;;;5008867;28;20501;-69
2023/03/22 08:20:24;;;;;;;2.75;1.77;;;;;;;;;;5003211;28;20050;-69
2023/03/22 08:22:51;;;;;;;2.30;1.10;;;;;;;;;;4993729;28;20426;-68
2023/03/22 08:25:18;;;;;;;2.85;1.10;;;;;;;;;;4988853;28;20061;-69
2023/03/22 08:27:44;;;;;;;1.60;1.02;;;;;;;;;;4989458;28;20457;-69
2023/03/22 08:30:12;;;;;;;1.67;1.20;;;;;;;;;;4989321;28;20257;-69
2023/03/22 08:32:40;;;;;;;2.97;1.20;;;;;;;;;;4989170;28;20496;-69
2023/03/22 08:35:08;;;;;;;3.25;1.25;;;;;;;;;;4988944;28;20053;-69
2023/03/22 08:37:35;;;;;;;2.00;0.90;;;;;;;;;;4988854;28;20422;-70
2023/03/22 08:40:05;;;;;;;1.55;0.85;;;;;;;;;;4996927;28;20418;-69
2023/03/22 08:42:32;;;;;;;0.85;0.85;;;;;;;;;;5008402;28;20514;-68
2023/03/22 08:44:58;;;;;;;3.70;1.23;;;;;;;;;;5008356;28;20403;-70
2023/03/22 08:47:25;;;;;;;3.28;1.00;;;;;;;;;;5008075;28;20058;-69
2023/03/22 08:49:53;;;;;;;4.25;1.17;;;;;;;;;;4994993;28;20054;-69
2023/03/22 08:52:21;;;;;;;2.42;1.10;;;;;;;;;;4998974;28;20045;-69
2023/03/22 08:54:50;;;;;;;5.22;1.77;;;;;;;;;;5008323;28;20046;-69
2023/03/22 08:57:17;;;;;;;2.53;1.20;;;;;;;;;;5008246;28;20511;-69
2023/03/22 08:59:43;;;;;;;2.15;1.40;;;;;;;;;;5007525;28;20092;-69
2023/03/22 09:02:10;;;;;;;3.90;1.30;;;;;;;;;;5008587;28;20046;-69
2023/03/22 09:04:37;;;;;;;2.15;1.50;;;;;;;;;;5007871;28;20046;-69
2023/03/22 09:07:05;;;;;;;3.90;1.55;;;;;;;;;;5002263;28;20070;-68
2023/03/22 09:09:32;;;;;;;2.42;1.15;;;;;;;;;;4988361;28;20047;-68
2023/03/22 09:11:58;;;;;;;2.08;1.30;;;;;;;;;;4988672;28;20088;-68
2023/03/22 09:14:25;;;;;;;3.08;1.23;;;;;;;;;;4988721;28;20474;-68
2023/03/22 09:16:51;;;;;;;2.50;1.17;;;;;;;;;;4988222;28;20050;-69
2023/03/22 09:19:19;;;;;;;2.88;1.60;;;;;;;;;;4993378;28;20048;-69
2023/03/22 09:21:46;;;;;;;2.00;1.33;;;;;;;;;;4988701;28;20574;-68
2023/03/22 09:24:14;;;;;;;3.03;1.45;;;;;;;;;;4995531;28;20054;-69
2023/03/22 09:26:41;;;;;;;3.35;1.48;;;;;;;;;;4987793;28;20050;-71
2023/03/22 09:29:07;;;;;;;1.50;1.13;;;;;;;;;;4988299;28;20099;-72
2023/03/22 09:31:34;;;;;;;4.15;1.10;;;;;;;;;;4988444;28;20443;-72
2023/03/22 09:34:00;;;;;;;4.47;1.40;;;;;;;;;;4987933;28;20042;-72
2023/03/22 09:36:27;;;;;;;3.50;1.30;;;;;;;;;;4988560;28;20492;-72
2023/03/22 09:38:55;;;;;;;3.83;1.30;;;;;;;;;;4987934;28;20089;-71
2023/03/22 09:41:30;;;;;;;2.50;1.35;;;;;;;;;;5003565;28;20137;-72
2023/03/22 09:43:59;;;;;;;2.15;1.23;;;;;;;;;;5007246;28;20053;-72
2023/03/22 09:46:30;;;;;;;3.38;1.40;;;;;;;;;;5007893;28;20041;-71
2023/03/22 09:48:58;;;;;;;2.03;1.30;;;;;;;;;;5000461;28;20051;-71
2023/03/22 09:51:33;;;;;;;3.40;1.38;;;;;;;;;;4989363;28;20054;-73
2023/03/22 09:54:00;;;;;;;1.80;1.13;;;;;;;;;;5007403;28;20141;-74
2023/03/22 09:56:30;;;;;;;2.80;1.38;;;;;;;;;;5003807;28;20446;-70
2023/03/22 09:59:08;;;;;;;3.83;1.95;;;;;;;;;;5001789;28;20052;-71
2023/03/22 10:01:44;;;;;;;3.70;1.80;;;;;;;;;;5007356;28;20058;-71
2023/03/22 10:04:39;;;;;;;2.47;1.15;;;;;;;;;;5007600;28;20291;-70
2023/03/22 10:07:15;;;;;;;2.35;1.48;;;;;;;;;;5005687;28;20107;-71
2023/03/22 10:09:53;;;;;;;2.08;1.55;;;;;;;;;;4988428;28;20047;-71
2023/03/22 10:12:27;;;;;;;4.10;1.70;;;;;;;;;;4987776;28;20050;-71
2023/03/22 10:15:03;;;;;;;3.08;1.10;;;;;;;;;;4987817;28;20061;-71
2023/03/22 10:17:30;;;;;;;1.13;1.00;;;;;;;;;;4987446;28;20061;-71
2023/03/22 10:20:00;;;;;;;6.95;1.98;;;;;;;;;;5008495;23;20114;-69
2023/03/22 10:22:30;;;;;;;6.18;2.65;;;;;;;;;;4988153;28;20134;-69
2023/03/22 10:24:59;;;;;;;2.50;1.55;;;;;;;;;;4988678;28;20426;-69
2023/03/22 10:27:30;;;;;;;2.70;1.40;;;;;;;;;;4988555;28;20046;-69
2023/03/22 10:30:01;;;;;;;4.00;1.38;;;;;;;;;;4987881;28;20061;-68
2023/03/22 10:32:34;;;;;;;3.33;1.48;;;;;;;;;;4988332;28;20046;-69
2023/03/22 10:35:00;;;;;;;1.50;1.17;;;;;;;;;;4987089;28;20398;-69
2023/03/22 10:37:33;;;;;;;5.05;2.47;;;;;;;;;;4988471;28;20047;-70
2023/03/22 10:40:05;;;;;;;7.32;3.67;;;;;;;;;;4987320;28;20081;-69
2023/03/22 10:42:36;;;;;;;2.92;1.08;;;;;;;;;;4988215;28;20046;-69
2023/03/22 10:45:05;;;;;;;1.27;0.93;;;;;;;;;;4987490;28;20050;-68
2023/03/22 10:47:36;;;;;;;2.80;1.52;;;;;;;;;;4988207;28;20088;-69
2023/03/22 10:50:06;;;;;;;1.73;1.10;;;;;;;;;;4987516;28;20042;-69
2023/03/22 10:52:40;;;;;;;2.90;1.30;;;;;;;;;;4987853;28;20065;-68
2023/03/22 10:55:11;;;;;;;1.90;1.10;;;;;;;;;;4988165;28;20166;-70
2023/03/22 10:57:41;;;;;;;2.10;1.00;;;;;;;;;;4987251;28;20046;-69
2023/03/22 11:00:10;;;;;;;1.33;0.90;;;;;;;;;;4988037;28;20047;-69
2023/03/22 11:02:46;;;;;;;2.00;0.88;;;;;;;;;;4987825;28;20056;-68
2023/03/22 11:05:21;;;;;;;3.42;1.00;;;;;;;;;;4987337;28;20047;-69
2023/03/22 11:07:49;;;;;;;2.95;0.90;;;;;;;;;;4989431;28;20054;-69
2023/03/22 11:10:28;;;;;;;1.65;0.85;;;;;;;;;;4990854;28;20050;-69
2023/03/22 11:13:11;;;;;;;3.78;1.15;;;;;;;;;;4990673;28;20050;-69
2023/03/22 11:15:41;;;;;;;3.38;0.88;;;;;;;;;;4991382;28;20498;-69
2023/03/22 11:18:13;;;;;;;1.30;0.77;;;;;;;;;;4991076;28;20046;-69
2023/03/22 11:20:41;;;;;;;1.98;0.70;;;;;;;;;;4991035;28;20468;-68
2023/03/22 11:23:12;;;;;;;2.10;0.80;;;;;;;;;;4990967;28;20525;-69
2023/03/22 11:25:46;;;;;;;1.33;0.90;;;;;;;;;;4990402;28;20050;-69
2023/03/22 11:28:19;;;;;;;2.55;0.70;;;;;;;;;;4991114;28;20052;-70
2023/03/22 11:31:00;;;;;;;2.65;1.10;;;;;;;;;;4990412;28;20050;-69
2023/03/22 11:33:26;;;;;;;4.28;0.82;;;;;;;;;;4990955;28;20042;-69
2023/03/22 11:35:55;;;;;;;2.17;1.48;;;;;;;;;;4989375;28;20047;-68
2023/03/22 11:38:28;;;;;;;2.17;0.90;;;;;;;;;;4990834;28;20060;-68
2023/03/22 11:40:58;;;;;;;0.93;0.80;;;;;;;;;;4990426;28;20108;-69
2023/03/22 11:43:28;;;;;;;3.20;1.00;;;;;;;;;;4989850;28;20046;-69
2023/03/22 11:45:57;;;;;;;1.85;0.90;;;;;;;;;;4990497;28;20050;-69
2023/03/22 11:48:26;;;;;;;1.33;0.80;;;;;;;;;;4989668;28;20046;-69
2023/03/22 11:50:55;;;;;;;3.88;1.15;;;;;;;;;;4990245;28;20116;-68
2023/03/22 11:53:24;;;;;;;1.23;0.80;;;;;;;;;;4989438;28;20050;-69
2023/03/22 11:55:53;;;;;;;3.00;0.98;;;;;;;;;;4990208;28;20450;-69
2023/03/22 11:58:30;;;;;;;0.95;0.68;;;;;;;;;;4990036;28;20057;-68
2023/03/22 12:00:59;;;;;;;2.55;1.02;;;;;;;;;;4989868;28;20056;-68
2023/03/22 12:03:28;;;;;;;3.00;0.70;;;;;;;;;;4989535;28;20066;-69
2023/03/22 12:05:56;;;;;;;2.70;0.90;;;;;;;;;;4988497;28;20047;-68
2023/03/22 12:08:28;;;;;;;1.60;0.80;;;;;;;;;;4989712;28;20100;-70
2023/03/22 12:11:00;;;;;;;2.47;1.10;;;;;;;;;;4989436;28;20050;-69
2023/03/22 12:13:34;;;;;;;1.80;0.77;;;;;;;;;;4989974;28;20046;-69
2023/03/22 12:16:05;;;;;;;3.55;0.98;;;;;;;;;;4989531;28;20046;-69
2023/03/22 12:18:38;;;;;;;2.65;1.05;;;;;;;;;;4989985;28;20053;-70
2023/03/22 12:21:05;;;;;;;2.72;0.90;;;;;;;;;;4989643;28;20046;-70
2023/03/22 12:23:34;;;;;;;4.03;1.15;;;;;;;;;;4989551;28;20461;-69
2023/03/22 12:26:03;;;;;;;1.50;0.90;;;;;;;;;;4989145;28;20054;-70
2023/03/22 12:28:37;;;;;;;1.35;0.80;;;;;;;;;;4988426;28;20414;-69
2023/03/22 12:31:06;;;;;;;2.65;0.80;;;;;;;;;;4989080;28;20047;-68
2023/03/22 12:33:37;;;;;;;2.70;1.10;;;;;;;;;;4988028;28;20051;-69
2023/03/22 12:36:06;;;;;;;3.25;1.10;;;;;;;;;;4989373;28;20046;-69
2023/03/22 12:38:40;;;;;;;3.90;0.95;;;;;;;;;;4988676;28;20072;-68
2023/03/22 12:41:11;;;;;;;1.48;0.85;;;;;;;;;;4989497;28;20475;-69
2023/03/22 12:43:58;;;;;;;1.60;0.90;;;;;;;;;;4989913;28;20047;-69
2023/03/22 12:46:27;;;;;;;3.88;1.10;;;;;;;;;;4989021;28;20233;-69
2023/03/22 12:48:58;;;;;;;1.92;0.90;;;;;;;;;;4989208;28;20058;-68
2023/03/22 12:51:25;;;;;;;2.63;1.33;;;;;;;;;;4989315;28;20207;-69
2023/03/22 12:53:55;;;;;;;2.40;0.80;;;;;;;;;;4989393;28;20053;-69
2023/03/22 12:56:24;;;;;;;2.72;1.65;;;;;;;;;;4989000;28;20605;-69
2023/03/22 12:58:54;;;;;;;1.58;1.02;;;;;;;;;;4989608;28;20403;-69
2023/03/22 13:01:29;;;;;;;1.73;1.10;;;;;;;;;;4989690;28;20061;-69
2023/03/22 13:03:56;;;;;;;2.15;0.95;;;;;;;;;;4989011;28;20395;-69
2023/03/22 13:06:33;;;;;;;1.60;1.05;;;;;;;;;;4989816;28;20096;-69
2023/03/22 13:09:17;;;;;;;2.17;0.90;;;;;;;;;;4988876;28;20050;-68
2023/03/22 13:11:45;;;;;;;2.00;1.33;;;;;;;;;;4989421;28;20051;-69
2023/03/22 13:14:45;;;;;;;2.72;1.17;;;;;;;;;;4988649;28;20043;-69
2023/03/22 13:17:15;;;;;;;1.73;0.95;;;;;;;;;;4989364;28;20058;-69
2023/03/22 13:19:52;;;;;;;4.55;1.45;;;;;;;;;;4988855;28;20048;-69
2023/03/22 13:22:21;;;;;;;4.80;1.10;;;;;;;;;;4989847;28;20054;-69
2023/03/22 13:25:28;;;;;;;2.90;1.20;;;;;;;;;;4988987;28;20047;-68
2023/03/22 13:27:56;;;;;;;1.55;1.17;;;;;;;;;;4998643;28;20050;-69
2023/03/22 13:30:25;;;;;;;2.53;0.95;;;;;;;;;;4987463;28;20047;-69
2023/03/22 13:32:55;;;;;;;1.10;1.00;;;;;;;;;;4989121;28;20484;-69
2023/03/22 13:35:26;;;;;;;3.67;1.45;;;;;;;;;;4988692;28;20411;-69
2023/03/22 13:37:55;;;;;;;1.83;1.08;;;;;;;;;;4989077;28;20049;-68
2023/03/22 13:40:29;;;;;;;1.75;1.00;;;;;;;;;;4988843;28;20046;-69
2023/03/22 13:43:10;;;;;;;1.35;0.82;;;;;;;;;;4988912;28;20050;-69
2023/03/22 13:45:58;;;;;;;1.00;0.80;;;;;;;;;;4988803;28;20050;-68
2023/03/22 13:48:31;;;;;;;1.83;0.90;;;;;;;;;;4989315;28;20054;-68
2023/03/22 13:51:07;;;;;;;3.05;1.20;;;;;;;;;;4988236;28;20129;-68
2023/03/22 13:53:36;;;;;;;4.63;0.90;;;;;;;;;;4988896;28;20046;-69
2023/03/22 13:56:05;;;;;;;1.35;0.80;;;;;;;;;;4988561;28;20148;-67
2023/03/22 13:58:36;;;;;;;2.78;1.10;;;;;;;;;;4989033;28;20066;-68
2023/03/22 14:01:04;;;;;;;2.55;1.20;;;;;;;;;;4988790;28;20132;-67
2023/03/22 14:03:36;;;;;;;1.98;1.10;;;;;;;;;;4988444;28;20051;-68
2023/03/22 14:06:13;;;;;;;3.20;0.93;;;;;;;;;;4988675;28;20052;-68
2023/03/22 14:08:42;;;;;;;3.90;1.30;;;;;;;;;;4988065;28;20054;-69
2023/03/22 14:11:32;;;;;;;2.47;1.23;;;;;;;;;;4988692;28;20050;-68
2023/03/22 14:14:02;;;;;;;2.67;1.35;;;;;;;;;;4988943;28;20046;-68
2023/03/22 14:16:38;;;;;;;2.40;1.05;;;;;;;;;;4988858;28;20050;-69
2023/03/22 14:19:09;;;;;;;2.88;1.30;;;;;;;;;;4988493;28;20390;-68
2023/03/22 14:21:39;;;;;;;3.03;1.30;;;;;;;;;;4988499;28;20050;-68
2023/03/22 14:24:08;;;;;;;3.20;1.30;;;;;;;;;;4988460;28;20046;-68
2023/03/22 14:26:38;;;;;;;4.88;1.30;;;;;;;;;;4988068;28;20051;-69
2023/03/22 14:29:07;;;;;;;3.03;1.35;;;;;;;;;;4988551;28;20046;-68
2023/03/22 14:31:34;;;;;;;1.88;0.90;;;;;;;;;;4988119;28;20043;-69
2023/03/22 14:34:03;;;;;;;3.67;1.10;;;;;;;;;;4987903;28;20500;-68
2023/03/22 14:36:36;;;;;;;2.42;1.05;;;;;;;;;;4988423;28;20042;-69
2023/03/22 14:39:06;;;;;;;1.65;0.90;;;;;;;;;;4988191;28;20078;-69
2023/03/22 14:41:33;;;;;;;1.50;0.95;;;;;;;;;;4988046;28;20042;-69
2023/03/22 14:44:01;;;;;;;4.32;0.88;;;;;;;;;;4991788;28;20046;-68
2023/03/22 14:46:32;;;;;;;2.97;1.00;;;;;;;;;;4991302;28;20057;-67
2023/03/22 14:49:02;;;;;;;1.45;0.95;;;;;;;;;;4991476;28;20050;-68
2023/03/22 14:51:32;;;;;;;2.88;1.10;;;;;;;;;;4990830;28;20058;-69
2023/03/22 14:54:03;;;;;;;1.60;1.00;;;;;;;;;;4991663;28;20476;-68
2023/03/22 14:56:32;;;;;;;1.20;0.95;;;;;;;;;;4990885;28;20047;-68
2023/03/22 14:59:01;;;;;;;1.80;1.15;;;;;;;;;;4991499;28;20046;-68
2023/03/22 15:01:30;;;;;;;2.15;1.10;;;;;;;;;;4991026;28;20050;-68